Time;durP1;ratioP1;P1;durP2;ratioP2;P2;SDS_P1;SDS_P2;PMS_P1;PMS_P2;Temp;Humidity;BMP_temperature;BMP_pressure;BME280_temperature;BME280_humidity;BME280_pressure;Samples;Min_cycle;Max_cycle;Signal;HPM_P1;HPM_P2
2022/04/22 00:02:08;;;;;;;7.10;4.53;;;12.90;99.90;;;;;;5056805;28;20193;-50
2022/04/22 00:04:34;;;;;;;8.70;4.60;;;12.80;99.90;;;;;;5060649;28;20662;-51
2022/04/22 00:07:02;;;;;;;7.37;4.67;;;12.70;99.90;;;;;;5061720;28;20729;-54
2022/04/22 00:09:29;;;;;;;5.73;4.30;;;12.70;99.90;;;;;;5059431;28;20197;-52
2022/04/22 00:11:56;;;;;;;7.47;4.87;;;12.70;99.90;;;;;;5056877;28;20206;-50
2022/04/22 00:14:23;;;;;;;5.10;4.57;;;12.80;99.90;;;;;;5062616;28;20201;-51
2022/04/22 00:16:50;;;;;;;7.60;4.83;;;12.90;99.90;;;;;;5050958;28;20237;-51
2022/04/22 00:19:17;;;;;;;6.10;4.83;;;12.80;99.90;;;;;;5057862;28;20282;-51
2022/04/22 00:21:47;;;;;;;7.57;5.80;;;12.70;99.90;;;;;;5064369;28;20263;-54
2022/04/22 00:24:17;;;;;;;7.30;4.97;;;12.60;99.90;;;;;;5064800;28;20520;-50
2022/04/22 00:26:44;;;;;;;8.53;5.83;;;12.60;99.90;;;;;;5063434;28;20231;-51
2022/04/22 00:29:11;;;;;;;8.27;5.97;;;12.50;99.90;;;;;;5056618;28;20450;-50
2022/04/22 00:31:39;;;;;;;6.43;4.77;;;12.50;99.90;;;;;;5062625;28;20207;-49
2022/04/22 00:34:06;;;;;;;7.13;5.30;;;12.60;99.90;;;;;;5064491;28;20229;-51
2022/04/22 00:36:33;;;;;;;7.47;5.80;;;12.40;99.90;;;;;;5065729;28;20325;-52
2022/04/22 00:39:01;;;;;;;7.20;5.67;;;12.40;99.90;;;;;;5053537;28;20277;-50
2022/04/22 00:41:29;;;;;;;7.57;5.07;;;12.40;99.90;;;;;;5057400;28;20223;-51
2022/04/22 00:43:56;;;;;;;7.07;5.17;;;12.40;99.90;;;;;;5067653;28;20191;-51
2022/04/22 00:46:23;;;;;;;8.23;5.97;;;12.30;99.90;;;;;;5061794;28;20200;-51
2022/04/22 00:48:50;;;;;;;8.90;5.43;;;12.30;99.90;;;;;;5062907;28;20202;-51
2022/04/22 00:51:18;;;;;;;9.43;5.47;;;12.40;99.90;;;;;;5061829;28;20204;-51
2022/04/22 00:53:49;;;;;;;6.80;5.67;;;12.40;99.90;;;;;;5056506;28;20201;-51
2022/04/22 00:56:16;;;;;;;8.17;5.57;;;12.50;99.90;;;;;;5064475;28;20309;-51
2022/04/22 00:58:46;;;;;;;6.50;5.53;;;12.40;99.90;;;;;;5067199;28;20191;-51
2022/04/22 01:01:13;;;;;;;6.57;5.90;;;12.30;99.90;;;;;;5065682;28;20196;-51
2022/04/22 01:09:47;;;;;;;9.43;6.47;;;12.40;99.90;;;;;;5061203;28;20195;-52
2022/04/22 01:09:56;;;;;;;10.30;5.47;;;12.40;99.90;;;;;;5063460;28;20253;-51
2022/04/22 01:12:09;;;;;;;6.87;6.13;;;12.20;99.90;;;;;;5054139;28;20657;-49
2022/04/22 01:14:37;;;;;;;9.23;6.07;;;12.30;99.90;;;;;;5055761;28;20198;-49
2022/04/22 01:17:05;;;;;;;8.13;6.33;;;12.20;99.90;;;;;;5061376;28;20212;-50
2022/04/22 01:19:32;;;;;;;7.40;5.90;;;12.30;99.90;;;;;;5051444;28;20227;-50
2022/04/22 01:22:00;;;;;;;10.30;7.33;;;12.20;99.90;;;;;;5064768;28;20229;-50
2022/04/22 01:24:27;;;;;;;6.83;5.77;;;12.10;99.90;;;;;;5064800;28;20643;-50
2022/04/22 01:26:55;;;;;;;9.03;6.33;;;12.10;99.90;;;;;;5062211;28;20231;-52
2022/04/22 01:29:22;;;;;;;8.83;6.57;;;12.00;99.90;;;;;;5059912;28;20945;-51
2022/04/22 01:31:50;;;;;;;8.30;6.10;;;12.00;99.90;;;;;;5064929;28;20224;-50
2022/04/22 01:34:17;;;;;;;7.53;6.67;;;12.00;99.90;;;;;;5061515;28;20298;-50
2022/04/22 01:36:44;;;;;;;7.90;6.70;;;12.00;99.90;;;;;;5066942;28;20215;-54
2022/04/22 01:39:11;;;;;;;8.50;6.30;;;12.00;99.90;;;;;;5061761;28;20274;-50
2022/04/22 01:41:37;;;;;;;8.67;6.50;;;12.00;99.90;;;;;;5058383;28;20200;-50
2022/04/22 01:44:04;;;;;;;8.80;6.80;;;11.90;99.90;;;;;;5065252;28;20198;-51
2022/04/22 01:46:31;;;;;;;7.87;6.23;;;11.90;99.90;;;;;;5058600;28;20191;-53
2022/04/22 01:48:58;;;;;;;8.10;6.90;;;11.80;99.90;;;;;;5055769;28;20506;-49
2022/04/22 01:51:25;;;;;;;7.67;6.40;;;11.90;99.90;;;;;;5062457;28;20579;-50
2022/04/22 01:53:52;;;;;;;8.90;7.10;;;11.90;99.90;;;;;;5058586;28;20297;-52
2022/04/22 01:56:19;;;;;;;9.50;6.20;;;11.80;99.90;;;;;;5061245;28;20294;-55
2022/04/22 01:58:46;;;;;;;8.47;7.30;;;11.80;99.90;;;;;;5066535;28;20292;-51
2022/04/22 02:01:13;;;;;;;11.97;6.87;;;11.80;99.90;;;;;;5065456;28;20288;-52
2022/04/22 02:03:40;;;;;;;9.43;6.17;;;11.80;99.90;;;;;;5062675;28;20203;-51
2022/04/22 02:06:07;;;;;;;11.87;6.73;;;11.80;99.90;;;;;;5059602;28;20223;-50
2022/04/22 02:08:36;;;;;;;8.90;6.80;;;11.80;99.90;;;;;;5065049;28;20206;-51
2022/04/22 02:11:03;;;;;;;9.27;7.00;;;11.80;99.90;;;;;;5065007;28;20306;-51
2022/04/22 02:13:36;;;;;;;9.13;6.60;;;11.80;99.90;;;;;;5055298;28;20196;-52
2022/04/22 02:16:07;;;;;;;9.17;6.77;;;11.80;99.90;;;;;;5061296;28;20209;-51
2022/04/22 02:18:39;;;;;;;13.10;7.27;;;11.80;99.90;;;;;;5062494;28;20211;-52
2022/04/22 02:21:06;;;;;;;10.03;7.20;;;11.70;99.90;;;;;;5063172;28;20596;-50
2022/04/22 02:23:33;;;;;;;12.37;7.07;;;11.60;99.90;;;;;;5061691;28;20631;-51
2022/04/22 02:26:01;;;;;;;9.23;6.93;;;11.60;99.90;;;;;;5055874;28;20187;-50
2022/04/22 02:28:32;;;;;;;9.27;7.40;;;11.60;99.90;;;;;;5056562;28;20195;-50
2022/04/22 02:31:08;;;;;;;11.53;7.07;;;11.60;99.90;;;;;;5056059;28;20679;-53
2022/04/22 02:33:36;;;;;;;12.20;7.77;;;11.60;99.90;;;;;;5062400;28;20681;-49
2022/04/22 02:36:04;;;;;;;12.50;7.53;;;11.50;99.90;;;;;;5064293;28;20218;-51
2022/04/22 02:38:32;;;;;;;8.07;6.77;;;11.50;99.90;;;;;;5060247;28;20222;-52
2022/04/22 02:46:31;;;;;;;8.83;7.30;;;11.50;99.90;;;;;;5058198;28;20195;-49
2022/04/22 02:49:00;;;;;;;9.00;7.33;;;11.50;99.90;;;;;;5060457;28;20207;-50
2022/04/22 02:51:27;;;;;;;10.80;7.67;;;11.40;99.90;;;;;;5067207;28;20227;-50
2022/04/22 02:53:55;;;;;;;11.57;8.40;;;11.50;99.90;;;;;;5062251;28;20231;-52
2022/04/22 02:56:23;;;;;;;10.30;7.63;;;11.50;99.90;;;;;;5063761;28;20197;-49
2022/04/22 02:58:50;;;;;;;10.10;7.27;;;11.30;99.90;;;;;;5062938;28;20713;-49
2022/04/22 03:01:17;;;;;;;9.67;8.23;;;11.20;99.90;;;;;;5082468;28;20199;-51
2022/04/22 03:03:45;;;;;;;10.83;7.70;;;11.20;99.90;;;;;;5051662;28;20195;-50
2022/04/22 03:06:12;;;;;;;10.93;8.20;;;11.30;99.90;;;;;;5063375;28;21107;-51
2022/04/22 03:08:38;;;;;;;9.53;8.00;;;11.40;99.90;;;;;;5046244;28;20270;-52
2022/04/22 03:11:05;;;;;;;10.67;7.30;;;11.30;99.90;;;;;;5061145;28;20207;-49
2022/04/22 03:13:33;;;;;;;9.43;7.10;;;11.30;99.90;;;;;;5064152;28;20242;-50
2022/04/22 03:16:02;;;;;;;9.83;8.80;;;11.20;99.90;;;;;;5061408;28;20410;-50
2022/04/22 03:18:29;;;;;;;9.87;7.67;;;11.10;99.90;;;;;;5057729;28;20230;-50
2022/04/22 03:20:57;;;;;;;11.37;7.87;;;11.20;99.90;;;;;;5060231;28;20227;-49
2022/04/22 03:23:24;;;;;;;11.23;7.77;;;11.20;99.90;;;;;;5065847;28;20231;-49
2022/04/22 03:25:54;;;;;;;9.53;7.60;;;11.30;99.90;;;;;;5064197;28;20198;-49
2022/04/22 03:28:22;;;;;;;10.20;7.87;;;11.10;99.90;;;;;;5064185;28;20639;-49
2022/04/22 03:30:49;;;;;;;10.77;8.43;;;11.10;99.90;;;;;;5062013;28;20238;-48
2022/04/22 03:33:17;;;;;;;11.07;7.80;;;11.00;99.90;;;;;;5064360;28;20198;-48
2022/04/22 03:35:50;;;;;;;9.50;8.07;;;11.10;99.90;;;;;;5063613;28;20203;-50
2022/04/22 03:38:21;;;;;;;12.43;7.47;;;11.00;99.90;;;;;;5064102;28;20646;-50
2022/04/22 03:40:50;;;;;;;11.27;8.00;;;11.10;99.90;;;;;;5055498;28;20209;-50
2022/04/22 03:43:18;;;;;;;12.23;8.67;;;11.10;99.90;;;;;;5057693;28;20292;-50
2022/04/22 03:45:45;;;;;;;9.00;6.87;;;10.90;99.90;;;;;;5065183;28;20283;-50
2022/04/22 03:48:15;;;;;;;10.17;7.83;;;10.80;99.90;;;;;;5054038;28;20214;-48
2022/04/22 03:50:42;;;;;;;8.90;7.13;;;11.00;99.90;;;;;;5065122;28;20245;-49
2022/04/22 03:53:12;;;;;;;10.50;7.50;;;10.80;99.90;;;;;;5060621;28;20202;-50
2022/04/22 03:55:41;;;;;;;11.97;7.70;;;10.90;99.90;;;;;;5067688;28;20246;-50
2022/04/22 03:58:12;;;;;;;10.93;7.17;;;10.90;99.90;;;;;;5066102;28;20346;-49
2022/04/22 04:00:48;;;;;;;10.83;7.80;;;10.90;99.90;;;;;;5067203;28;20214;-50
2022/04/22 04:03:20;;;;;;;10.50;7.57;;;10.70;99.90;;;;;;5062422;28;20206;-49
2022/04/22 04:05:50;;;;;;;11.17;7.20;;;10.70;99.90;;;;;;5065790;28;20275;-53
2022/04/22 04:08:19;;;;;;;12.53;7.40;;;10.70;99.90;;;;;;5065030;28;20201;-51
2022/04/22 04:16:18;;;;;;;9.57;7.67;;;10.60;99.90;;;;;;5062846;28;20645;-50
2022/04/22 04:18:45;;;;;;;11.60;7.70;;;10.70;99.90;;;;;;5060562;28;20218;-49
2022/04/22 04:24:02;;;;;;;10.57;8.10;;;10.50;99.90;;;;;;5065361;28;20203;-49
2022/04/22 04:26:29;;;;;;;10.27;7.73;;;10.50;99.90;;;;;;5066415;28;20619;-50
2022/04/22 04:28:56;;;;;;;14.37;8.17;;;10.60;99.90;;;;;;5066666;28;20235;-55
2022/04/22 04:31:23;;;;;;;10.60;7.97;;;10.50;99.90;;;;;;5066690;28;20596;-49
2022/04/22 04:33:49;;;;;;;10.03;7.60;;;10.60;99.90;;;;;;5065626;28;20206;-52
2022/04/22 04:36:16;;;;;;;10.20;7.77;;;10.60;99.90;;;;;;5070609;28;20210;-50
2022/04/22 04:38:44;;;;;;;10.17;7.67;;;10.60;99.90;;;;;;5065795;28;20211;-52
2022/04/22 04:41:13;;;;;;;10.87;8.27;;;10.60;99.90;;;;;;5068581;28;20702;-50
2022/04/22 04:43:40;;;;;;;10.80;7.70;;;10.60;99.90;;;;;;5066044;28;20203;-51
2022/04/22 04:46:07;;;;;;;10.47;7.97;;;10.50;99.90;;;;;;5065497;28;20555;-50
2022/04/22 04:48:36;;;;;;;13.90;9.57;;;10.50;99.90;;;;;;5058559;28;20196;-50
2022/04/22 04:51:03;;;;;;;10.87;8.13;;;10.60;99.90;;;;;;5067577;28;20236;-50
2022/04/22 04:53:30;;;;;;;14.33;9.77;;;10.60;99.90;;;;;;5062904;28;20295;-51
2022/04/22 04:55:57;;;;;;;11.40;9.07;;;10.70;99.90;;;;;;5062085;28;20199;-52
2022/04/22 04:58:24;;;;;;;13.33;8.50;;;10.60;99.90;;;;;;5067676;28;20639;-51
2022/04/22 05:00:51;;;;;;;11.83;8.53;;;10.50;99.90;;;;;;5064493;28;20622;-52
2022/04/22 05:03:19;;;;;;;10.30;8.30;;;10.60;99.90;;;;;;5061779;28;20203;-51
2022/04/22 05:05:46;;;;;;;14.20;9.23;;;10.70;99.90;;;;;;5065723;28;20260;-50
2022/04/22 05:08:13;;;;;;;13.10;9.03;;;10.60;99.90;;;;;;5067161;28;20722;-50
2022/04/22 05:10:40;;;;;;;12.07;8.97;;;10.70;99.90;;;;;;5069334;28;20739;-51
2022/04/22 05:13:07;;;;;;;12.90;9.20;;;10.70;99.90;;;;;;5063567;28;20651;-50
2022/04/22 05:15:35;;;;;;;14.97;10.13;;;10.80;99.90;;;;;;5063919;28;20258;-49
2022/04/22 05:18:02;;;;;;;13.30;10.03;;;10.70;99.90;;;;;;5064865;28;20333;-49
2022/04/22 05:20:32;;;;;;;14.20;10.40;;;10.90;99.90;;;;;;5062027;28;20216;-51
2022/04/22 05:22:59;;;;;;;11.93;10.37;;;10.70;99.90;;;;;;5066068;28;20225;-53
2022/04/22 05:25:26;;;;;;;14.37;10.43;;;10.70;99.90;;;;;;5066662;28;20401;-51
2022/04/22 05:27:53;;;;;;;13.20;9.83;;;10.80;99.90;;;;;;5067768;28;20207;-51
2022/04/22 05:33:06;;;;;;;16.37;10.87;;;10.90;99.90;;;;;;5061797;28;20230;-50
2022/04/22 05:35:33;;;;;;;13.13;10.10;;;10.90;99.90;;;;;;5062787;28;20202;-51
2022/04/22 05:38:03;;;;;;;15.60;10.27;;;10.80;99.90;;;;;;5067416;28;20301;-49
2022/04/22 05:40:35;;;;;;;13.77;9.83;;;10.90;99.90;;;;;;5069361;28;20239;-51
2022/04/22 05:43:05;;;;;;;14.60;10.43;;;10.90;99.90;;;;;;5066170;28;20202;-51
2022/04/22 05:45:33;;;;;;;14.33;11.47;;;10.90;99.90;;;;;;5066607;28;20209;-51
2022/04/22 05:48:00;;;;;;;14.87;10.53;;;10.90;99.90;;;;;;5064212;28;20305;-51
2022/04/22 05:50:27;;;;;;;15.27;11.47;;;11.00;99.90;;;;;;5059205;28;20682;-52
2022/04/22 05:52:55;;;;;;;15.00;10.07;;;11.10;99.90;;;;;;5063598;28;20200;-52
2022/04/22 05:55:24;;;;;;;14.80;10.43;;;11.10;99.90;;;;;;5065006;28;20253;-51
2022/04/22 05:57:53;;;;;;;14.57;10.50;;;10.90;99.90;;;;;;5062872;28;20386;-51
2022/04/22 06:00:23;;;;;;;15.10;10.90;;;11.00;99.90;;;;;;5055103;28;20345;-50
2022/04/22 06:02:52;;;;;;;13.60;11.03;;;11.10;99.90;;;;;;5062003;28;20295;-53
2022/04/22 06:05:20;;;;;;;14.83;10.43;;;11.20;99.90;;;;;;5052047;28;20211;-50
2022/04/22 06:10:31;;;;;;;18.30;10.93;;;11.30;99.90;;;;;;5056558;28;20202;-50
2022/04/22 06:10:36;;;;;;;13.33;11.20;;;11.30;99.90;;;;;;5058912;28;20194;-50
2022/04/22 06:13:03;;;;;;;16.03;10.93;;;11.40;99.90;;;;;;5066088;28;20198;-50
2022/04/22 06:15:31;;;;;;;13.97;10.73;;;11.40;99.90;;;;;;5062807;28;20265;-52
2022/04/22 06:17:59;;;;;;;15.53;10.80;;;11.40;99.90;;;;;;5061696;28;21009;-49
2022/04/22 06:20:26;;;;;;;13.40;10.73;;;11.30;99.90;;;;;;5055048;28;20599;-51
2022/04/22 06:22:54;;;;;;;16.80;11.40;;;11.30;99.90;;;;;;5061987;28;20566;-52
2022/04/22 06:25:21;;;;;;;17.03;11.40;;;11.40;99.90;;;;;;5060201;28;20225;-51
2022/04/22 06:27:48;;;;;;;14.63;11.27;;;11.50;99.90;;;;;;5061400;28;20230;-50
2022/04/22 06:30:17;;;;;;;12.60;10.60;;;11.80;99.90;;;;;;5061051;28;20269;-51
2022/04/22 06:32:46;;;;;;;12.67;10.63;;;11.60;99.90;;;;;;5059342;28;20235;-51
2022/04/22 06:35:14;;;;;;;12.97;10.47;;;11.80;99.90;;;;;;5050984;28;20299;-51
2022/04/22 06:37:45;;;;;;;12.20;10.10;;;11.80;99.90;;;;;;5052078;28;20506;-49
2022/04/22 06:45:47;;;;;;;13.43;10.87;;;12.20;99.90;;;;;;5055795;28;20241;-53
2022/04/22 06:48:19;;;;;;;13.47;11.17;;;12.40;99.90;;;;;;5054984;28;20199;-49
2022/04/22 06:51:07;;;;;;;15.43;11.27;;;12.30;99.90;;;;;;5051926;28;20930;-51
2022/04/22 06:53:35;;;;;;;15.43;11.07;;;12.20;99.90;;;;;;5054916;28;20634;-52
2022/04/22 06:56:06;;;;;;;13.30;10.67;;;12.20;99.90;;;;;;5056526;28;20233;-52
2022/04/22 06:58:37;;;;;;;17.13;11.47;;;12.30;99.90;;;;;;5046733;28;20505;-50
2022/04/22 07:01:07;;;;;;;12.80;10.03;;;12.30;99.90;;;;;;5053745;28;21628;-49
2022/04/22 07:03:54;;;;;;;14.93;10.43;;;12.30;99.90;;;;;;5043052;28;20748;-50
2022/04/22 07:06:21;;;;;;;15.20;11.70;;;12.30;99.90;;;;;;5052084;28;20199;-49
2022/04/22 07:08:49;;;;;;;14.57;10.90;;;12.50;99.90;;;;;;5053869;28;20211;-50
2022/04/22 07:11:24;;;;;;;14.17;10.80;;;12.40;99.90;;;;;;5054032;28;20206;-52
2022/04/22 07:13:56;;;;;;;16.20;11.13;;;12.50;99.90;;;;;;5054635;28;20207;-49
2022/04/22 07:16:24;;;;;;;14.03;11.30;;;12.50;99.90;;;;;;5055399;28;20619;-50
2022/04/22 07:18:52;;;;;;;16.87;11.33;;;12.40;99.90;;;;;;5048117;28;20253;-52
2022/04/22 07:21:20;;;;;;;16.70;11.47;;;12.50;99.90;;;;;;5056250;28;20217;-48
2022/04/22 07:23:47;;;;;;;11.87;10.63;;;12.50;99.90;;;;;;5053794;28;20210;-49
2022/04/22 07:26:17;;;;;;;12.60;11.23;;;12.50;99.90;;;;;;5062269;28;20215;-49
2022/04/22 07:28:48;;;;;;;12.20;10.90;;;12.60;99.90;;;;;;5055271;28;20195;-51
2022/04/22 07:31:18;;;;;;;13.37;10.93;;;12.50;99.90;;;;;;5055016;28;20518;-51
2022/04/22 07:33:46;;;;;;;12.37;10.47;;;12.40;99.90;;;;;;5056308;28;20646;-51
2022/04/22 07:36:13;;;;;;;14.27;11.10;;;12.60;99.90;;;;;;5060105;28;20210;-50
2022/04/22 07:38:40;;;;;;;13.03;11.00;;;12.70;99.90;;;;;;5061475;28;20302;-49
2022/04/22 07:41:08;;;;;;;12.57;10.73;;;12.50;99.90;;;;;;5059340;28;20269;-49
2022/04/22 07:49:09;;;;;;;15.20;11.60;;;12.90;99.90;;;;;;5056068;28;20232;-49
2022/04/22 07:51:36;;;;;;;12.03;10.53;;;13.10;99.90;;;;;;5062046;28;20200;-49
2022/04/22 07:54:02;;;;;;;12.23;10.60;;;13.10;99.90;;;;;;5057763;28;20694;-49
2022/04/22 07:56:29;;;;;;;12.97;10.20;;;13.30;99.90;;;;;;5063618;28;20204;-50
2022/04/22 07:58:56;;;;;;;13.20;10.70;;;13.50;99.90;;;;;;5064088;28;20791;-51
2022/04/22 08:01:23;;;;;;;12.20;10.27;;;13.50;99.90;;;;;;5061976;28;20227;-51
2022/04/22 08:03:52;;;;;;;14.67;10.67;;;13.50;99.90;;;;;;5059402;28;20201;-51
2022/04/22 08:06:19;;;;;;;12.27;10.07;;;13.40;99.90;;;;;;5067280;28;20224;-51
2022/04/22 08:08:46;;;;;;;12.00;10.00;;;13.40;99.90;;;;;;5059145;28;20234;-51
2022/04/22 08:11:12;;;;;;;11.87;10.00;;;13.40;99.90;;;;;;5055001;28;20246;-52
2022/04/22 08:13:40;;;;;;;12.77;10.27;;;13.30;99.90;;;;;;5058516;28;20200;-51
2022/04/22 08:16:08;;;;;;;12.73;9.23;;;13.40;99.90;;;;;;5061839;28;20943;-49
2022/04/22 08:18:36;;;;;;;10.87;9.40;;;13.40;99.90;;;;;;5064129;28;20566;-52
2022/04/22 08:21:02;;;;;;;12.93;10.83;;;13.30;99.90;;;;;;5052393;28;20717;-50
2022/04/22 08:23:29;;;;;;;11.77;10.23;;;13.40;99.90;;;;;;5066596;28;20656;-51
2022/04/22 08:25:57;;;;;;;12.13;10.30;;;13.30;99.90;;;;;;5063912;28;20549;-49
2022/04/22 08:28:24;;;;;;;12.03;10.43;;;13.30;99.90;;;;;;5056807;28;20299;-50
2022/04/22 08:30:51;;;;;;;13.50;10.37;;;13.20;99.90;;;;;;5062991;28;20872;-50
2022/04/22 08:33:18;;;;;;;11.53;9.37;;;13.40;99.90;;;;;;5059913;28;20192;-51
2022/04/22 08:35:45;;;;;;;12.13;9.50;;;13.40;99.90;;;;;;5065242;28;20296;-50
2022/04/22 08:38:11;;;;;;;13.50;10.17;;;13.80;99.90;;;;;;5059710;28;20320;-49
2022/04/22 08:40:39;;;;;;;11.50;10.17;;;14.10;99.90;;;;;;5062314;28;20231;-51
2022/04/22 08:43:06;;;;;;;10.87;9.53;;;14.30;99.90;;;;;;5062038;28;20199;-48
2022/04/22 08:45:35;;;;;;;11.27;10.03;;;14.50;99.90;;;;;;5053313;28;20218;-53
2022/04/22 08:50:54;;;;;;;11.37;9.90;;;14.60;99.90;;;;;;5063608;28;20559;-51
2022/04/22 08:53:28;;;;;;;11.93;10.53;;;14.90;99.90;;;;;;5063655;28;20285;-52
2022/04/22 08:55:57;;;;;;;12.37;10.27;;;14.80;99.90;;;;;;5064102;28;20196;-52
2022/04/22 08:58:29;;;;;;;10.53;9.47;;;14.90;99.90;;;;;;5064507;28;20201;-52
2022/04/22 09:00:57;;;;;;;11.27;9.73;;;14.80;99.90;;;;;;5060551;28;20222;-51
2022/04/22 09:03:27;;;;;;;12.77;9.67;;;14.60;99.90;;;;;;5059516;28;20193;-53
2022/04/22 09:05:58;;;;;;;11.37;8.83;;;14.80;99.90;;;;;;5055441;28;20196;-51
2022/04/22 09:08:26;;;;;;;10.27;9.17;;;14.60;99.90;;;;;;5062620;28;20239;-52
2022/04/22 09:10:57;;;;;;;9.50;8.50;;;15.10;99.90;;;;;;5065368;28;20235;-53
2022/04/22 09:13:31;;;;;;;12.20;9.33;;;15.60;99.90;;;;;;5066572;28;20200;-52
2022/04/22 09:15:59;;;;;;;11.57;9.27;;;15.80;99.90;;;;;;5062371;28;20209;-51
2022/04/22 09:18:42;;;;;;;11.13;9.90;;;15.80;99.90;;;;;;5059679;28;20699;-50
2022/04/22 09:21:16;;;;;;;12.23;9.93;;;16.40;99.90;;;;;;5052368;28;20247;-52
2022/04/22 09:23:43;;;;;;;11.13;9.83;;;16.30;99.90;;;;;;5067505;28;20288;-53
2022/04/22 09:26:22;;;;;;;11.07;9.97;;;16.00;99.90;;;;;;5063570;28;20250;-52
2022/04/22 09:28:59;;;;;;;12.07;8.87;;;16.30;99.90;;;;;;5064480;28;20703;-51
2022/04/22 09:31:27;;;;;;;10.80;9.23;;;16.50;99.90;;;;;;5060741;28;20479;-53
2022/04/22 09:33:55;;;;;;;10.03;8.77;;;17.10;99.90;;;;;;5062443;28;21168;-52
2022/04/22 09:45:08;;;;;;;10.87;8.40;;;16.70;99.90;;;;;;5058264;28;20238;-53
2022/04/22 09:47:36;;;;;;;10.37;9.27;;;17.00;99.90;;;;;;5063793;28;20254;-52
2022/04/22 09:50:08;;;;;;;9.23;8.30;;;16.90;99.90;;;;;;5062379;28;20196;-50
2022/04/22 09:52:35;;;;;;;9.70;8.17;;;17.20;99.90;;;;;;5061342;28;20233;-52
2022/04/22 09:55:05;;;;;;;9.20;8.30;;;17.30;99.90;;;;;;5054069;28;20608;-52
2022/04/22 09:57:52;;;;;;;12.33;8.67;;;17.10;99.90;;;;;;5061529;28;20207;-51
2022/04/22 10:00:21;;;;;;;11.80;7.23;;;16.70;99.90;;;;;;5056663;28;21183;-51
2022/04/22 10:02:52;;;;;;;8.37;7.33;;;16.50;99.90;;;;;;5060185;28;20249;-51
2022/04/22 10:05:20;;;;;;;9.20;7.50;;;16.50;99.90;;;;;;5058741;28;20292;-51
2022/04/22 10:07:57;;;;;;;8.80;7.43;;;16.30;99.90;;;;;;5059475;28;20350;-53
2022/04/22 10:10:27;;;;;;;8.70;7.13;;;16.50;99.90;;;;;;5060517;28;20286;-52
2022/04/22 10:12:57;;;;;;;8.37;7.57;;;16.00;99.90;;;;;;5059664;28;20290;-51
2022/04/22 10:15:30;;;;;;;10.30;7.50;;;15.90;99.90;;;;;;5054308;28;20206;-51
2022/04/22 10:17:57;;;;;;;7.40;6.67;;;16.00;99.90;;;;;;5059452;28;20195;-50
2022/04/22 10:20:26;;;;;;;8.53;7.47;;;16.10;99.90;;;;;;5061173;28;20585;-52
2022/04/22 10:22:53;;;;;;;9.50;8.03;;;16.20;99.90;;;;;;5060232;28;20676;-52
2022/04/22 10:25:21;;;;;;;10.43;7.30;;;16.10;99.90;;;;;;5056261;28;20939;-50
2022/04/22 10:27:50;;;;;;;11.30;7.57;;;15.90;99.90;;;;;;5065288;28;20198;-51
2022/04/22 10:30:19;;;;;;;11.43;7.87;;;15.90;99.90;;;;;;5061988;28;20231;-51
2022/04/22 10:32:48;;;;;;;10.93;8.03;;;15.90;99.90;;;;;;5061399;28;20577;-53
2022/04/22 10:35:15;;;;;;;13.27;8.63;;;15.80;99.90;;;;;;5050987;28;20202;-53
2022/04/22 10:37:42;;;;;;;8.70;7.80;;;15.70;99.90;;;;;;5059321;28;20295;-52
2022/04/22 10:40:27;;;;;;;9.13;7.97;;;15.80;99.90;;;;;;5053390;28;20216;-53
2022/04/22 10:42:55;;;;;;;10.07;8.33;;;15.50;99.90;;;;;;5061018;28;20620;-51
2022/04/22 10:48:25;;;;;;;9.40;8.40;;;15.60;99.90;;;;;;5059253;28;20202;-51
2022/04/22 10:51:03;;;;;;;11.97;8.40;;;15.50;99.90;;;;;;5054961;28;20212;-52
2022/04/22 10:53:34;;;;;;;9.13;7.80;;;15.50;99.90;;;;;;5058163;28;20260;-50
2022/04/22 10:56:26;;;;;;;11.17;8.30;;;15.30;99.90;;;;;;5065649;28;20197;-53
2022/04/22 10:59:15;;;;;;;10.70;8.10;;;15.30;99.90;;;;;;5066763;28;20279;-52
2022/04/22 11:01:43;;;;;;;9.93;7.90;;;15.30;99.90;;;;;;5063991;28;20300;-54
2022/04/22 11:04:24;;;;;;;8.90;8.00;;;15.50;99.90;;;;;;5062872;28;20225;-50
2022/04/22 11:06:51;;;;;;;11.43;8.57;;;15.20;99.90;;;;;;5060795;28;20246;-51
2022/04/22 11:09:29;;;;;;;8.63;7.73;;;15.30;99.90;;;;;;5056843;28;20208;-52
2022/04/22 11:11:58;;;;;;;11.60;8.93;;;15.10;99.90;;;;;;5061008;28;20205;-51
2022/04/22 11:14:27;;;;;;;10.63;8.43;;;15.20;99.90;;;;;;5061345;28;20204;-52
2022/04/22 11:16:55;;;;;;;12.83;9.53;;;15.30;99.90;;;;;;5063578;28;20670;-50
2022/04/22 11:19:26;;;;;;;10.90;8.67;;;15.40;99.90;;;;;;5054143;28;20677;-51
2022/04/22 11:21:55;;;;;;;11.13;9.70;;;15.40;99.90;;;;;;5064654;28;20278;-51
2022/04/22 11:24:28;;;;;;;9.73;8.37;;;15.40;99.90;;;;;;5057317;28;20229;-52
2022/04/22 11:27:08;;;;;;;11.93;8.77;;;15.30;99.90;;;;;;5063957;28;20197;-52
2022/04/22 11:29:35;;;;;;;10.63;7.97;;;15.40;99.90;;;;;;5057746;28;20305;-53
2022/04/22 11:32:07;;;;;;;10.60;8.33;;;15.40;99.90;;;;;;5063205;28;20197;-49
2022/04/22 11:34:51;;;;;;;11.97;9.33;;;15.60;99.90;;;;;;5062157;28;20193;-52
2022/04/22 11:37:22;;;;;;;10.97;8.50;;;15.70;99.90;;;;;;5042117;28;20555;-52
2022/04/22 11:39:50;;;;;;;9.63;8.13;;;15.80;99.90;;;;;;5057508;28;20302;-51
2022/04/22 11:42:18;;;;;;;8.60;7.67;;;15.70;99.90;;;;;;5056888;28;20554;-52
2022/04/22 11:45:06;;;;;;;8.87;7.27;;;15.50;99.90;;;;;;5060491;28;20654;-49
2022/04/22 11:47:33;;;;;;;9.70;7.90;;;15.60;99.90;;;;;;5056750;28;20661;-52
2022/04/22 11:50:00;;;;;;;10.63;7.97;;;15.40;99.90;;;;;;5057201;28;20598;-50
2022/04/22 11:52:29;;;;;;;10.87;7.50;;;15.30;99.90;;;;;;5058691;28;20206;-51
2022/04/22 11:55:03;;;;;;;12.10;7.70;;;15.30;99.90;;;;;;5061191;28;20708;-51
2022/04/22 11:57:34;;;;;;;8.73;6.97;;;15.50;99.90;;;;;;5062976;28;20290;-52
2022/04/22 12:05:36;;;;;;;10.03;6.70;;;15.50;99.90;;;;;;5070076;28;20210;-49
2022/04/22 12:08:10;;;;;;;9.03;7.37;;;15.60;99.90;;;;;;5065546;28;20617;-50
2022/04/22 12:10:37;;;;;;;7.17;6.47;;;15.70;99.90;;;;;;5066801;28;20822;-51
2022/04/22 12:13:06;;;;;;;10.63;7.40;;;15.80;99.90;;;;;;5061842;28;20607;-50
2022/04/22 12:15:39;;;;;;;8.80;6.77;;;16.00;99.90;;;;;;5064146;28;20311;-51
2022/04/22 12:18:36;;;;;;;7.63;6.83;;;15.90;99.90;;;;;;5058229;28;20210;-52
2022/04/22 12:21:05;;;;;;;9.03;7.00;;;15.80;99.90;;;;;;5064144;28;20229;-51
2022/04/22 12:23:36;;;;;;;7.70;6.33;;;15.80;99.90;;;;;;5060472;28;20222;-51
2022/04/22 12:26:04;;;;;;;9.63;7.40;;;15.90;99.90;;;;;;5062704;28;20721;-50
2022/04/22 12:28:31;;;;;;;9.63;6.73;;;15.80;99.90;;;;;;5064454;28;20666;-49
2022/04/22 12:30:57;;;;;;;9.60;7.07;;;15.70;99.90;;;;;;5062270;28;20332;-49
2022/04/22 12:33:25;;;;;;;8.23;6.47;;;15.70;99.90;;;;;;5062268;28;20194;-51
2022/04/22 12:36:05;;;;;;;7.83;6.27;;;15.60;99.90;;;;;;5061926;28;20748;-52
2022/04/22 12:38:34;;;;;;;7.20;5.20;;;15.70;99.90;;;;;;5057771;28;20206;-52
2022/04/22 12:41:01;;;;;;;8.13;6.10;;;15.60;99.90;;;;;;5060194;28;20340;-53
2022/04/22 12:43:32;;;;;;;8.67;7.10;;;15.60;99.90;;;;;;5063795;28;20280;-50
2022/04/22 12:52:14;;;;;;;9.40;7.23;;;15.70;99.90;;;;;;5057427;28;20210;-51
2022/04/22 12:54:45;;;;;;;8.10;6.20;;;15.60;99.90;;;;;;5064318;28;20202;-51
2022/04/22 12:57:21;;;;;;;7.10;6.03;;;15.70;99.90;;;;;;5061636;28;20236;-51
2022/04/22 12:59:54;;;;;;;8.37;6.50;;;15.60;99.90;;;;;;5061490;28;20239;-51
2022/04/22 13:02:32;;;;;;;6.90;5.73;;;15.90;99.90;;;;;;5062117;28;20207;-49
2022/04/22 13:05:02;;;;;;;7.37;6.40;;;15.90;99.90;;;;;;5063654;28;20941;-52
2022/04/22 13:07:43;;;;;;;7.93;5.87;;;15.90;99.90;;;;;;5053622;28;20845;-50
2022/04/22 13:10:10;;;;;;;6.80;6.10;;;16.00;99.90;;;;;;5067451;28;20578;-51
2022/04/22 13:12:41;;;;;;;6.83;6.13;;;16.00;99.90;;;;;;5065750;28;20233;-50
2022/04/22 13:15:19;;;;;;;8.87;6.07;;;15.90;99.90;;;;;;5063711;28;20239;-48
2022/04/22 13:17:50;;;;;;;8.20;6.47;;;16.00;99.90;;;;;;5057317;28;20209;-49
2022/04/22 13:20:21;;;;;;;7.53;6.10;;;16.20;99.90;;;;;;5065410;28;20246;-51
2022/04/22 13:22:48;;;;;;;7.20;6.50;;;16.20;99.90;;;;;;5061097;28;20282;-50
2022/04/22 13:25:17;;;;;;;9.17;6.30;;;16.20;99.90;;;;;;5064807;28;20647;-51
2022/04/22 13:27:45;;;;;;;13.77;6.33;;;16.30;99.90;;;;;;5060314;28;20193;-51
2022/04/22 13:30:16;;;;;;;6.93;5.73;;;16.40;99.90;;;;;;5060839;28;20250;-51
2022/04/22 13:32:43;;;;;;;7.00;6.30;;;16.40;99.90;;;;;;5061655;28;20298;-49
2022/04/22 13:35:10;;;;;;;7.13;5.73;;;16.30;99.90;;;;;;5053282;28;20568;-50
2022/04/22 13:37:37;;;;;;;9.57;6.20;;;16.20;99.90;;;;;;5063023;28;20542;-48
2022/04/22 13:40:05;;;;;;;9.17;6.40;;;16.20;99.90;;;;;;5060644;28;20211;-49
2022/04/22 13:42:32;;;;;;;6.53;5.77;;;16.30;99.90;;;;;;5060569;28;20223;-52
2022/04/22 13:53:15;;;;;;;7.73;5.70;;;16.00;99.90;;;;;;5057219;28;20247;-50
2022/04/22 13:55:41;;;;;;;8.30;5.93;;;16.10;99.90;;;;;;5046526;28;20563;-51